createdAt,value
2022-07-31T00:00:53.522Z,101874.81
2022-07-31T00:03:21.582Z,101865.84
2022-07-31T00:05:49.625Z,101867.16
2022-07-31T00:08:17.826Z,101874.94
2022-07-31T00:10:45.852Z,101871.91
2022-07-31T00:13:15.284Z,101868.34
2022-07-31T00:15:43.194Z,101863.25
2022-07-31T00:18:11.770Z,101859.91
2022-07-31T00:20:39.717Z,101865.53
2022-07-31T00:23:07.665Z,101861.19
2022-07-31T00:25:38.900Z,101858.38
2022-07-31T00:28:07.880Z,101850.50
2022-07-31T00:30:37.172Z,101850.50
2022-07-31T00:33:05.249Z,101849.41
2022-07-31T00:35:33.201Z,101828.53
2022-07-31T00:38:25.746Z,101831.25
2022-07-31T00:40:49.152Z,101818.47
2022-07-31T00:43:18.394Z,101825.72
2022-07-31T00:45:49.381Z,101824.44
2022-07-31T00:48:27.611Z,101826.13
2022-07-31T00:50:56.007Z,101819.84
2022-07-31T00:53:23.973Z,101820.72
2022-07-31T00:55:52.374Z,101807.41
2022-07-31T00:58:20.536Z,101815.31
2022-07-31T01:00:49.984Z,101808.94
2022-07-31T01:03:18.738Z,101803.31
2022-07-31T01:05:46.728Z,101806.75
2022-07-31T01:08:14.890Z,101803.31
2022-07-31T01:10:46.678Z,101792.06
2022-07-31T01:13:16.126Z,101795.09
2022-07-31T01:15:44.062Z,101801.13
2022-07-31T01:18:13.450Z,101799.63
2022-07-31T01:20:44.520Z,101781.03
2022-07-31T01:23:19.645Z,101794.97
2022-07-31T01:25:54.088Z,101791.28
2022-07-31T01:28:26.061Z,101791.19
2022-07-31T01:33:43.932Z,101779.72
2022-07-31T01:36:14.393Z,101783.16
2022-07-31T01:38:45.795Z,101783.06
2022-07-31T01:41:14.532Z,101784.78
2022-07-31T01:43:43.130Z,101779.28
2022-07-31T01:46:14.085Z,101782.97
2022-07-31T01:48:42.057Z,101768.47
2022-07-31T01:51:10.453Z,101773.97
2022-07-31T01:53:39.128Z,101776.69
2022-07-31T01:56:07.147Z,101774.84
2022-07-31T01:58:36.680Z,101764.81
2022-07-31T02:01:05.041Z,101776.91
2022-07-31T02:03:42.796Z,101782.00
2022-07-31T02:06:13.046Z,101776.59
2022-07-31T02:08:40.980Z,101778.53
2022-07-31T02:11:08.972Z,101765.84
2022-07-31T02:13:36.975Z,101764.03
2022-07-31T02:16:05.713Z,101771.38
2022-07-31T02:18:35.333Z,101765.09
2022-07-31T02:21:03.316Z,101761.66
2022-07-31T02:23:31.341Z,101762.31
2022-07-31T02:25:59.314Z,101769.44
2022-07-31T02:28:27.232Z,101756.03
2022-07-31T02:30:55.181Z,101762.66
2022-07-31T02:33:23.846Z,101750.84
2022-07-31T02:35:55.398Z,101748.59
2022-07-31T02:38:26.192Z,101759.28
2022-07-31T02:40:56.072Z,101743.38
2022-07-31T02:43:23.984Z,101748.16
2022-07-31T02:45:51.925Z,101741.34
2022-07-31T02:48:19.905Z,101738.66
2022-07-31T02:50:47.816Z,101737.03
2022-07-31T02:53:17.130Z,101732.19
2022-07-31T02:55:45.509Z,101728.63
2022-07-31T02:58:14.139Z,101735.09
2022-07-31T03:00:42.365Z,101725.16
2022-07-31T03:03:10.474Z,101716.19
2022-07-31T03:05:38.424Z,101720.38
2022-07-31T03:08:06.928Z,101722.25
2022-07-31T03:10:36.270Z,101723.97
2022-07-31T03:13:04.614Z,101727.97
2022-07-31T03:15:32.614Z,101715.34
2022-07-31T03:18:00.566Z,101724.75
2022-07-31T03:20:28.803Z,101715.13
2022-07-31T03:22:56.763Z,101719.00
2022-07-31T03:25:24.651Z,101725.28
2022-07-31T03:27:56.764Z,101701.94
2022-07-31T03:30:25.940Z,101718.56
2022-07-31T03:32:53.945Z,101724.22
2022-07-31T03:35:21.936Z,101720.66
2022-07-31T03:37:49.900Z,101724.22
2022-07-31T03:40:17.854Z,101716.44
2022-07-31T03:42:45.772Z,101699.56
2022-07-31T03:45:15.165Z,101713.63
2022-07-31T03:47:43.107Z,101711.91
2022-07-31T03:50:11.102Z,101711.03
2022-07-31T03:52:39.059Z,101713.72
2022-07-31T03:55:08.292Z,101715.56
2022-07-31T03:57:36.294Z,101714.81
2022-07-31T04:00:04.914Z,101715.88
2022-07-31T04:02:36.756Z,101709.72
2022-07-31T04:05:09.597Z,101706.16
2022-07-31T04:07:38.185Z,101708.00
2022-07-31T04:10:06.839Z,101708.06
2022-07-31T04:12:34.798Z,101703.38
2022-07-31T04:15:02.773Z,101703.38
2022-07-31T04:17:30.904Z,101707.91
2022-07-31T04:20:05.719Z,101691.88
2022-07-31T04:22:33.905Z,101703.38
2022-07-31T04:25:02.020Z,101700.56
2022-07-31T04:27:30.009Z,101711.34
2022-07-31T04:29:58.200Z,101707.78
2022-07-31T04:32:26.180Z,101706.16
2022-07-31T04:34:54.102Z,101707.03
2022-07-31T04:37:23.429Z,101707.19
2022-07-31T04:39:51.374Z,101698.13
2022-07-31T04:42:19.342Z,101707.16
2022-07-31T04:44:47.265Z,101703.66
2022-07-31T04:47:17.551Z,101703.66
2022-07-31T04:49:45.881Z,101698.47
2022-07-31T04:52:13.830Z,101704.75
2022-07-31T04:54:43.498Z,101704.94
2022-07-31T04:57:11.444Z,101710.34
2022-07-31T04:59:59.050Z,101683.97
2022-07-31T05:02:27.256Z,101697.72
2022-07-31T05:04:58.180Z,101693.81
2022-07-31T05:07:28.916Z,101697.84
2022-07-31T05:09:59.557Z,101695.22
2022-07-31T05:12:27.543Z,101698.66
2022-07-31T05:14:56.206Z,101699.53
2022-07-31T05:17:24.133Z,101695.00
2022-07-31T05:19:52.068Z,101699.53
2022-07-31T05:22:20.319Z,101698.66
2022-07-31T05:24:48.624Z,101707.44
2022-07-31T05:27:18.014Z,101698.47
2022-07-31T05:29:45.939Z,101706.38
2022-07-31T05:32:14.069Z,101701.91
2022-07-31T05:34:42.295Z,101704.31
2022-07-31T05:37:10.343Z,101711.75
2022-07-31T05:39:38.306Z,101715.25
2022-07-31T05:42:07.851Z,101707.91
2022-07-31T05:44:37.670Z,101706.91
2022-07-31T05:47:08.629Z,101690.50
2022-07-31T05:49:36.629Z,101699.47
2022-07-31T05:52:05.363Z,101700.34
2022-07-31T05:54:33.675Z,101702.94
2022-07-31T05:57:01.744Z,101706.50
2022-07-31T05:59:29.625Z,101705.63
2022-07-31T06:02:37.657Z,101699.34
2022-07-31T06:05:02.774Z,101702.81
2022-07-31T06:07:30.888Z,101705.63
2022-07-31T06:09:58.828Z,101713.41
2022-07-31T06:12:26.782Z,101710.78
2022-07-31T06:14:54.683Z,101704.44
2022-07-31T06:17:24.033Z,101714.03
2022-07-31T06:20:09.771Z,101704.97
2022-07-31T06:22:39.401Z,101704.66
2022-07-31T06:25:08.741Z,101713.59
2022-07-31T06:27:38.674Z,101709.94
2022-07-31T06:35:10.293Z,101720.19
2022-07-31T06:37:38.232Z,101713.06
2022-07-31T06:40:07.269Z,101717.84
2022-07-31T06:42:37.705Z,101713.50
2022-07-31T06:45:06.369Z,101712.75
2022-07-31T06:47:34.321Z,101706.47
2022-07-31T06:50:03.648Z,101715.34
2022-07-31T06:52:31.609Z,101709.06
2022-07-31T06:55:01.194Z,101705.47
2022-07-31T06:57:29.299Z,101700.88
2022-07-31T06:59:57.239Z,101707.22
2022-07-31T07:02:25.254Z,101717.28
2022-07-31T07:05:05.117Z,101716.41
2022-07-31T07:08:50.843Z,101717.41
2022-07-31T07:11:16.896Z,101721.50
2022-07-31T07:13:46.846Z,101724.41
2022-07-31T07:16:15.120Z,101713.84
2022-07-31T07:18:43.496Z,101723.56
2022-07-31T07:21:11.762Z,101727.13
2022-07-31T07:23:41.183Z,101719.88
2022-07-31T07:26:09.796Z,101735.97
2022-07-31T07:28:37.734Z,101731.34
2022-07-31T07:31:05.792Z,101728.88
2022-07-31T07:33:40.999Z,101725.28
2022-07-31T07:36:23.180Z,101722.03
2022-07-31T07:38:55.624Z,101739.44
2022-07-31T07:41:28.973Z,101736.84
2022-07-31T07:43:56.892Z,101735.03
2022-07-31T07:46:25.240Z,101738.59
2022-07-31T07:48:53.252Z,101729.38
2022-07-31T07:51:59.319Z,101729.28
2022-07-31T07:54:30.975Z,101736.31
2022-07-31T07:59:27.198Z,101736.19
2022-07-31T08:03:48.754Z,101732.19
2022-07-31T08:05:21.923Z,101733.91
2022-07-31T08:07:49.949Z,101726.53
2022-07-31T08:10:19.769Z,101727.66
2022-07-31T08:13:19.142Z,101728.63
2022-07-31T08:15:47.208Z,101726.56
2022-07-31T08:18:15.170Z,101731.00
2022-07-31T08:20:43.219Z,101731.00
2022-07-31T08:23:11.583Z,101724.53
2022-07-31T08:25:47.593Z,101723.97
2022-07-31T08:28:24.145Z,101726.00
2022-07-31T08:30:52.206Z,101721.66
2022-07-31T08:33:20.440Z,101720.97
2022-07-31T08:35:50.911Z,101718.69
2022-07-31T08:38:19.672Z,101718.16
2022-07-31T08:40:49.380Z,101729.50
2022-07-31T08:44:04.467Z,101708.19
2022-07-31T08:46:33.274Z,101732.59
2022-07-31T08:49:01.270Z,101729.78
2022-07-31T08:51:29.360Z,101735.19
2022-07-31T08:53:57.513Z,101738.31
2022-07-31T08:56:26.867Z,101730.84
2022-07-31T08:58:56.983Z,101727.66
2022-07-31T09:01:25.111Z,101727.44
2022-07-31T09:03:53.659Z,101736.78
2022-07-31T09:06:21.583Z,101729.81
2022-07-31T09:08:49.563Z,101732.25
2022-07-31T09:11:23.951Z,101721.16
2022-07-31T09:14:01.715Z,101749.88
2022-07-31T09:16:31.414Z,101751.72
2022-07-31T09:19:00.845Z,101746.53
2022-07-31T09:21:39.154Z,101757.28
2022-07-31T09:24:10.206Z,101754.22
2022-07-31T09:26:40.878Z,101748.19
2022-07-31T09:29:35.699Z,101754.56
2022-07-31T09:32:11.058Z,101748.81
2022-07-31T09:34:39.362Z,101748.22
2022-07-31T09:37:32.326Z,101749.00
2022-07-31T09:40:00.353Z,101748.16
2022-07-31T09:42:36.909Z,101746.56
2022-07-31T09:48:26.694Z,101755.50
2022-07-31T09:50:56.437Z,101756.84
2022-07-31T09:53:43.523Z,101765.97
2022-07-31T09:56:12.711Z,101764.09
2022-07-31T09:58:40.945Z,101765.22
2022-07-31T10:01:14.370Z,101775.31
2022-07-31T10:03:42.407Z,101773.44
2022-07-31T10:06:16.412Z,101768.66
2022-07-31T10:08:45.085Z,101774.31
2022-07-31T10:11:16.824Z,101770.84
2022-07-31T10:13:46.328Z,101769.47
2022-07-31T10:16:52.241Z,101781.16
2022-07-31T10:19:20.274Z,101771.09
2022-07-31T10:21:53.032Z,101776.16
2022-07-31T10:24:25.955Z,101766.53
2022-07-31T10:27:10.570Z,101775.78
2022-07-31T10:29:39.817Z,101779.38
2022-07-31T10:32:09.386Z,101778.75
2022-07-31T10:34:37.386Z,101778.84
2022-07-31T10:37:11.292Z,101784.06
2022-07-31T10:40:23.695Z,101795.44
2022-07-31T10:42:53.829Z,101788.03
2022-07-31T10:45:23.103Z,101791.88
2022-07-31T10:47:56.731Z,101791.72
2022-07-31T10:50:25.212Z,101793.34
2022-07-31T10:53:34.660Z,101799.84
2022-07-31T10:56:16.541Z,101797.91
2022-07-31T10:58:48.479Z,101797.78
2022-07-31T11:01:17.610Z,101787.69
2022-07-31T11:04:41.344Z,101774.66
2022-07-31T11:07:16.156Z,101793.66
2022-07-31T11:09:51.015Z,101793.53
2022-07-31T11:12:19.552Z,101795.28
2022-07-31T11:18:21.999Z,101777.88
2022-07-31T11:21:09.486Z,101795.06
2022-07-31T11:24:01.134Z,101797.16
2022-07-31T11:26:41.945Z,101798.78
2022-07-31T11:29:58.523Z,101796.84
2022-07-31T11:32:01.576Z,101800.00
2022-07-31T11:35:19.658Z,101793.63
2022-07-31T11:37:57.021Z,101794.22
2022-07-31T11:40:29.191Z,101800.50
2022-07-31T11:45:49.772Z,101784.44
2022-07-31T11:48:19.512Z,101804.66
2022-07-31T11:50:47.832Z,101798.38
2022-07-31T11:53:17.234Z,101794.00
2022-07-31T11:56:00.771Z,101791.41
2022-07-31T11:59:54.988Z,101789.50
2022-07-31T12:01:54.562Z,101798.78
2022-07-31T12:04:59.625Z,101788.84
2022-07-31T12:07:27.700Z,101796.03
2022-07-31T12:10:01.349Z,101804.66
2022-07-31T12:12:31.075Z,101810.22
2022-07-31T12:14:58.996Z,101808.94
2022-07-31T12:17:27.016Z,101804.59
2022-07-31T12:19:58.199Z,101789.94
2022-07-31T12:22:26.156Z,101802.72
2022-07-31T12:25:04.967Z,101808.97
2022-07-31T12:27:46.654Z,101816.50
2022-07-31T12:30:15.987Z,101811.91
2022-07-31T12:32:44.185Z,101810.63
2022-07-31T12:35:56.163Z,101805.72
2022-07-31T12:41:31.842Z,101816.00
2022-07-31T12:44:13.472Z,101823.44
2022-07-31T12:46:42.758Z,101820.72
2022-07-31T12:49:10.898Z,101813.38
2022-07-31T12:51:45.330Z,101816.53
2022-07-31T12:54:16.342Z,101809.94
2022-07-31T12:57:21.822Z,101820.72
2022-07-31T12:59:51.217Z,101817.00
2022-07-31T13:02:44.818Z,101820.44
2022-07-31T13:05:12.784Z,101830.00
2022-07-31T13:07:40.715Z,101830.81
2022-07-31T13:10:19.046Z,101830.72
2022-07-31T13:12:51.344Z,101831.84
2022-07-31T13:15:22.723Z,101827.78
2022-07-31T13:17:51.296Z,101830.47
2022-07-31T13:20:39.055Z,101843.75
2022-07-31T13:23:07.519Z,101828.72
2022-07-31T13:25:35.506Z,101842.50
2022-07-31T13:28:03.634Z,101838.69
2022-07-31T13:30:32.920Z,101802.16
2022-07-31T13:33:00.862Z,101827.44
2022-07-31T13:35:32.152Z,101838.13
2022-07-31T13:38:05.899Z,101840.53
2022-07-31T13:44:29.821Z,101835.41
2022-07-31T13:46:59.259Z,101833.16
2022-07-31T13:52:43.089Z,101839.41
2022-07-31T13:55:21.061Z,101832.53
2022-07-31T13:57:49.033Z,101843.75
2022-07-31T14:00:17.754Z,101835.16
2022-07-31T14:02:49.982Z,101841.44
2022-07-31T14:09:01.159Z,101848.34
2022-07-31T14:14:07.321Z,101852.22
2022-07-31T14:16:37.156Z,101842.50
2022-07-31T14:19:06.660Z,101846.78
2022-07-31T14:21:38.001Z,101845.94
2022-07-31T14:24:06.814Z,101848.44
2022-07-31T14:26:34.907Z,101845.84
2022-07-31T14:29:06.926Z,101859.72
2022-07-31T14:31:35.319Z,101858.00
2022-07-31T14:34:03.273Z,101857.56
2022-07-31T14:36:32.657Z,101864.56
2022-07-31T14:39:00.663Z,101857.31
2022-07-31T14:41:28.636Z,101860.97
2022-07-31T14:43:56.586Z,101865.22
2022-07-31T14:46:24.560Z,101867.72
2022-07-31T14:48:52.548Z,101874.31
2022-07-31T14:51:20.589Z,101872.75
2022-07-31T14:53:52.367Z,101866.84
2022-07-31T14:56:34.714Z,101874.00
2022-07-31T14:59:08.356Z,101875.31
2022-07-31T15:01:36.404Z,101875.78
2022-07-31T15:04:04.535Z,101857.84
2022-07-31T15:06:39.551Z,101868.88
2022-07-31T15:09:22.044Z,101859.84
2022-07-31T15:11:58.313Z,101866.19
2022-07-31T15:14:29.958Z,101869.81
2022-07-31T15:16:57.928Z,101864.34
2022-07-31T15:19:26.632Z,101858.72
2022-07-31T15:22:10.778Z,101865.66
2022-07-31T15:24:49.464Z,101865.75
2022-07-31T15:27:18.245Z,101852.13
2022-07-31T15:30:05.126Z,101862.47
2022-07-31T15:32:34.287Z,101863.72
2022-07-31T15:35:02.305Z,101868.19
2022-07-31T15:37:30.567Z,101869.25
2022-07-31T15:40:02.484Z,101857.34
2022-07-31T15:42:31.947Z,101862.94
2022-07-31T15:44:59.912Z,101876.66
2022-07-31T15:47:27.892Z,101866.19
2022-07-31T15:49:56.110Z,101861.03
2022-07-31T15:52:24.035Z,101869.88
2022-07-31T15:54:52.648Z,101862.69
2022-07-31T15:57:22.352Z,101861.88
2022-07-31T15:59:50.418Z,101857.91
2022-07-31T16:02:18.594Z,101859.34
2022-07-31T16:04:52.742Z,101862.25
2022-07-31T16:08:28.799Z,101857.63
2022-07-31T16:10:15.769Z,101859.09
2022-07-31T16:12:46.988Z,101873.03
2022-07-31T16:15:15.229Z,101869.94
2022-07-31T16:17:44.377Z,101875.88
2022-07-31T16:20:26.022Z,101875.03
2022-07-31T16:22:55.962Z,101871.47
2022-07-31T16:25:24.262Z,101873.78
2022-07-31T16:27:53.636Z,101872.03
2022-07-31T16:30:21.803Z,101860.69
2022-07-31T16:32:49.813Z,101877.75
2022-07-31T16:35:17.769Z,101868.00
2022-07-31T16:37:52.403Z,101869.16
2022-07-31T16:40:28.810Z,101863.63
2022-07-31T16:43:00.818Z,101861.72
2022-07-31T16:45:29.638Z,101862.22
2022-07-31T16:47:57.630Z,101857.44
2022-07-31T16:50:25.725Z,101856.31
2022-07-31T16:52:55.102Z,101861.16
2022-07-31T16:55:51.558Z,101869.31
2022-07-31T16:58:13.766Z,101876.28
2022-07-31T17:00:42.178Z,101878.00
2022-07-31T17:03:58.573Z,101879.25
2022-07-31T17:05:58.367Z,101879.72
2022-07-31T17:08:26.325Z,101878.63
2022-07-31T17:10:54.937Z,101885.88
2022-07-31T17:13:24.586Z,101879.25
2022-07-31T17:15:52.540Z,101877.81
2022-07-31T17:18:25.036Z,101879.00
2022-07-31T17:20:55.690Z,101880.31
2022-07-31T17:23:43.160Z,101878.53
2022-07-31T17:26:21.303Z,101880.34
2022-07-31T17:28:51.365Z,101884.13
2022-07-31T17:31:21.293Z,101890.56
2022-07-31T17:33:59.195Z,101880.25
2022-07-31T17:36:29.620Z,101877.28
2022-07-31T17:38:58.035Z,101883.09
2022-07-31T17:41:26.320Z,101884.56
2022-07-31T17:43:55.900Z,101875.72
2022-07-31T17:46:29.999Z,101888.88
2022-07-31T17:49:05.964Z,101886.41
2022-07-31T17:51:34.324Z,101885.97
2022-07-31T17:54:02.482Z,101879.78
2022-07-31T17:56:30.590Z,101893.22
2022-07-31T17:59:04.674Z,101883.75
2022-07-31T18:01:33.504Z,101888.41
2022-07-31T18:04:01.624Z,101880.22
2022-07-31T18:06:29.809Z,101890.88
2022-07-31T18:08:58.759Z,101891.22
2022-07-31T18:11:26.848Z,101890.25
2022-07-31T18:13:55.535Z,101887.69
2022-07-31T18:16:30.390Z,101883.41
2022-07-31T18:18:58.384Z,101895.31
2022-07-31T18:21:26.377Z,101901.19
2022-07-31T18:23:54.815Z,101896.81
2022-07-31T18:26:23.593Z,101896.09
2022-07-31T18:28:51.561Z,101906.59
2022-07-31T18:31:31.582Z,101902.00
2022-07-31T18:34:02.520Z,101926.41
2022-07-31T18:36:30.529Z,101919.84
2022-07-31T18:38:58.862Z,101899.00
2022-07-31T18:41:26.870Z,101895.28
2022-07-31T18:43:54.889Z,101927.00
2022-07-31T18:46:23.790Z,101918.63
2022-07-31T18:48:55.418Z,101920.75
2022-07-31T18:51:25.649Z,101885.22
2022-07-31T18:53:54.362Z,101911.84
2022-07-31T18:56:23.276Z,101917.06
2022-07-31T18:58:51.257Z,101923.53
2022-07-31T19:01:19.321Z,101939.09
2022-07-31T19:03:47.503Z,101941.75
2022-07-31T19:06:15.470Z,101940.47
2022-07-31T19:08:44.921Z,101936.69
2022-07-31T19:11:12.952Z,101940.94
2022-07-31T19:13:41.793Z,101940.25
2022-07-31T19:16:09.849Z,101939.31
2022-07-31T19:18:40.235Z,101931.34
2022-07-31T19:21:16.723Z,101930.53
2022-07-31T19:23:53.042Z,101934.19
2022-07-31T19:26:21.053Z,101941.31
2022-07-31T19:28:49.009Z,101938.41
2022-07-31T19:31:17.101Z,101946.22
2022-07-31T19:33:45.119Z,101950.47
2022-07-31T19:36:15.377Z,101952.75
2022-07-31T19:38:44.389Z,101944.41
2022-07-31T19:41:14.874Z,101949.94
2022-07-31T19:43:44.658Z,101946.25
2022-07-31T19:46:13.036Z,101952.44
2022-07-31T19:48:41.831Z,101937.25
2022-07-31T19:51:09.882Z,101944.69
2022-07-31T19:53:37.885Z,101958.03
2022-07-31T19:56:06.501Z,101957.69
2022-07-31T19:58:36.093Z,101960.28
2022-07-31T20:01:04.366Z,101945.66
2022-07-31T20:03:32.516Z,101954.75
2022-07-31T20:06:00.697Z,101958.59
2022-07-31T20:08:33.018Z,101960.03
2022-07-31T20:11:03.430Z,101964.00
2022-07-31T20:13:32.251Z,101962.47
2022-07-31T20:16:01.713Z,101963.53
2022-07-31T20:18:30.658Z,101968.38
2022-07-31T20:20:59.360Z,101969.44
2022-07-31T20:23:27.335Z,101967.84
2022-07-31T20:25:55.689Z,101962.63
2022-07-31T20:28:23.687Z,101965.44
2022-07-31T20:30:51.634Z,101966.41
2022-07-31T20:33:21.180Z,101959.34
2022-07-31T20:35:50.286Z,101958.69
2022-07-31T20:38:18.830Z,101959.94
2022-07-31T20:40:53.823Z,101963.63
2022-07-31T20:43:23.435Z,101960.25
2022-07-31T20:45:51.479Z,101969.53
2022-07-31T20:48:22.499Z,101968.00
2022-07-31T20:50:50.552Z,101988.75
2022-07-31T20:53:19.387Z,101989.03
2022-07-31T20:55:50.721Z,101987.41
2022-07-31T20:58:18.813Z,102000.13
2022-07-31T21:00:47.703Z,102017.31
2022-07-31T21:03:16.192Z,102019.25
2022-07-31T21:05:45.571Z,102018.47
2022-07-31T21:08:13.767Z,102016.06
2022-07-31T21:10:41.862Z,102011.81
2022-07-31T21:13:09.939Z,102011.06
2022-07-31T21:15:43.661Z,102016.56
2022-07-31T21:18:13.251Z,102018.50
2022-07-31T21:20:51.007Z,102015.03
2022-07-31T21:23:22.440Z,102009.94
2022-07-31T21:25:50.733Z,102012.03
2022-07-31T21:28:19.272Z,102007.81
2022-07-31T21:30:47.547Z,102010.91
2022-07-31T21:33:15.651Z,102011.09
2022-07-31T21:35:44.222Z,102009.50
2022-07-31T21:38:14.670Z,102005.47
2022-07-31T21:40:44.288Z,102011.03
2022-07-31T21:43:16.980Z,102013.25
2022-07-31T21:45:55.276Z,102019.13
2022-07-31T21:48:26.395Z,102007.84
2022-07-31T21:50:54.434Z,101999.72
2022-07-31T21:53:22.566Z,102018.31
2022-07-31T21:55:51.953Z,102016.78
2022-07-31T21:58:19.904Z,102020.59
2022-07-31T22:00:47.974Z,102012.91
2022-07-31T22:03:16.537Z,102010.41
2022-07-31T22:06:01.885Z,102004.41
2022-07-31T22:08:29.814Z,102012.06
2022-07-31T22:10:59.270Z,102004.09
2022-07-31T22:13:27.207Z,102006.16
2022-07-31T22:16:00.674Z,102005.91
2022-07-31T22:18:29.602Z,102007.56
2022-07-31T22:20:57.849Z,102013.72
2022-07-31T22:23:26.254Z,102012.88
2022-07-31T22:25:54.502Z,101972.50
2022-07-31T22:28:24.565Z,102006.25
2022-07-31T22:30:52.664Z,102005.84
2022-07-31T22:33:20.770Z,102002.66
2022-07-31T22:35:58.471Z,102006.56
2022-07-31T22:38:28.186Z,102007.69
2022-07-31T22:40:56.304Z,102012.41
2022-07-31T22:44:12.586Z,102009.88
2022-07-31T22:46:13.782Z,102014.56
2022-07-31T22:48:41.876Z,102028.31
2022-07-31T22:51:10.734Z,102024.03
2022-07-31T22:53:42.512Z,102024.22
2022-07-31T22:56:10.464Z,102027.19
2022-07-31T22:58:39.773Z,102031.88
2022-07-31T23:01:07.729Z,102030.22
2022-07-31T23:03:35.809Z,102025.03
2022-07-31T23:06:31.475Z,102034.03
2022-07-31T23:08:56.513Z,102016.56
2022-07-31T23:11:24.730Z,102004.50
2022-07-31T23:13:54.179Z,102021.81
2022-07-31T23:16:22.277Z,102027.44
2022-07-31T23:18:50.283Z,102026.81
2022-07-31T23:21:18.681Z,102031.53
2022-07-31T23:23:49.154Z,102036.94
2022-07-31T23:26:18.830Z,102027.22
2022-07-31T23:28:46.960Z,102037.28
2022-07-31T23:31:16.279Z,102036.50
2022-07-31T23:33:44.261Z,102033.03
2022-07-31T23:36:12.250Z,102035.81
2022-07-31T23:38:40.198Z,102031.53
2022-07-31T23:41:08.110Z,102033.44
2022-07-31T23:43:35.070Z,102036.06
2022-07-31T23:46:03.071Z,102035.88
2022-07-31T23:48:32.815Z,102033.81
2022-07-31T23:51:00.798Z,102030.88
2022-07-31T23:53:28.765Z,102036.81
2022-07-31T23:55:56.722Z,102036.56
2022-07-31T23:58:24.688Z,102039.00
